Time;durP1;ratioP1;P1;durP2;ratioP2;P2;SDS_P1;SDS_P2;PMS_P1;PMS_P2;Temp;Humidity;BMP_temperature;BMP_pressure;BME280_temperature;BME280_humidity;BME280_pressure;Samples;Min_cycle;Max_cycle;Signal;HPM_P1;HPM_P2
2023/05/01 00:00:50;;;;;;;6.25;3.30;;;12.80;96.70;;;;;;5058795;28;20029;-89
2023/05/01 00:03:19;;;;;;;6.50;3.10;;;12.80;96.70;;;;;;5058908;28;20025;-89
2023/05/01 00:05:45;;;;;;;4.70;3.03;;;12.80;96.70;;;;;;5058568;28;20538;-88
2023/05/01 00:08:11;;;;;;;7.25;3.63;;;12.80;96.80;;;;;;5041514;28;20029;-89
2023/05/01 00:10:37;;;;;;;5.20;3.42;;;12.80;96.80;;;;;;5055263;28;20028;-90
2023/05/01 00:13:03;;;;;;;6.00;3.25;;;12.80;96.90;;;;;;5054925;28;20071;-89
2023/05/01 00:15:30;;;;;;;5.22;3.30;;;12.80;96.90;;;;;;5038320;28;20084;-89
2023/05/01 00:17:55;;;;;;;4.95;2.95;;;12.80;96.90;;;;;;5044601;28;20029;-89
2023/05/01 00:20:22;;;;;;;6.05;3.42;;;12.70;96.90;;;;;;5075267;28;20048;-89
2023/05/01 00:22:50;;;;;;;6.43;2.92;;;12.70;97.00;;;;;;5075272;28;20035;-89
2023/05/01 00:25:16;;;;;;;7.07;3.13;;;12.70;97.00;;;;;;5075638;28;20036;-89
2023/05/01 00:27:42;;;;;;;7.32;3.03;;;12.80;97.10;;;;;;5058463;28;20021;-89
2023/05/01 00:30:08;;;;;;;5.40;3.20;;;12.70;97.20;;;;;;5075405;28;20048;-89
2023/05/01 00:32:33;;;;;;;5.07;2.97;;;12.70;97.20;;;;;;5058919;28;20492;-89
2023/05/01 00:34:59;;;;;;;5.45;3.15;;;12.80;97.30;;;;;;5058544;28;20056;-89
2023/05/01 00:37:25;;;;;;;6.35;3.63;;;12.70;97.30;;;;;;5045744;28;20033;-90
2023/05/01 00:39:51;;;;;;;4.32;2.85;;;12.70;97.30;;;;;;5086758;28;20116;-89
2023/05/01 00:42:17;;;;;;;6.63;3.30;;;12.70;97.30;;;;;;5065123;28;20107;-89
2023/05/01 00:44:42;;;;;;;3.88;3.15;;;12.70;97.40;;;;;;5056193;28;20116;-89
2023/05/01 00:47:08;;;;;;;5.30;3.05;;;12.70;97.50;;;;;;5066912;28;20033;-89
2023/05/01 00:49:34;;;;;;;4.55;2.90;;;12.70;97.50;;;;;;5072058;28;20056;-88
2023/05/01 00:52:00;;;;;;;5.72;3.17;;;12.70;97.50;;;;;;5038292;28;20029;-89
2023/05/01 00:54:27;;;;;;;5.13;3.05;;;12.60;97.40;;;;;;5022783;28;20040;-90
2023/05/01 00:56:53;;;;;;;8.98;3.83;;;12.70;97.40;;;;;;5057419;28;20025;-89
2023/05/01 00:59:20;;;;;;;5.38;3.17;;;12.60;97.50;;;;;;5088496;28;20013;-89
2023/05/01 01:01:46;;;;;;;7.10;3.08;;;12.60;97.40;;;;;;5080831;28;20035;-86
2023/05/01 01:04:12;;;;;;;6.93;3.05;;;12.60;97.50;;;;;;5102522;28;20033;-88
2023/05/01 01:06:56;;;;;;;5.88;3.38;;;12.60;97.50;;;;;;5076344;28;20013;-90
2023/05/01 01:09:44;;;;;;;5.50;3.35;;;12.60;97.50;;;;;;5066359;28;20429;-90
2023/05/01 01:12:26;;;;;;;5.70;2.95;;;12.60;97.50;;;;;;5062882;28;20020;-88
2023/05/01 01:14:58;;;;;;;4.68;2.85;;;12.50;97.50;;;;;;5075407;28;20029;-89
2023/05/01 01:17:37;;;;;;;7.50;3.53;;;12.60;97.40;;;;;;5074077;28;20055;-89
2023/05/01 01:20:37;;;;;;;3.45;2.83;;;12.50;97.70;;;;;;5073783;28;20020;-88
2023/05/01 01:23:34;;;;;;;6.13;3.55;;;12.50;97.50;;;;;;5059072;28;20031;-89
2023/05/01 01:26:24;;;;;;;6.30;3.20;;;12.50;97.30;;;;;;5073899;28;20025;-89
2023/05/01 01:29:26;;;;;;;5.35;3.25;;;12.50;97.30;;;;;;5073495;28;20020;-88
2023/05/01 01:32:19;;;;;;;4.90;3.40;;;12.50;97.30;;;;;;5073834;28;20048;-90
2023/05/01 01:34:59;;;;;;;5.43;3.40;;;12.40;97.40;;;;;;5067280;28;20040;-83
2023/05/01 01:37:36;;;;;;;4.53;3.25;;;12.40;97.30;;;;;;5073458;28;20035;-89
2023/05/01 01:40:10;;;;;;;5.97;3.25;;;12.40;97.40;;;;;;5073517;28;20028;-89
2023/05/01 01:42:39;;;;;;;5.15;3.45;;;12.50;97.40;;;;;;5074429;28;20032;-89
2023/05/01 01:45:20;;;;;;;6.57;3.50;;;12.50;97.40;;;;;;5090393;28;20029;-89
2023/05/01 01:47:47;;;;;;;11.55;3.80;;;12.40;97.40;;;;;;5073650;28;20477;-88
2023/05/01 01:50:15;;;;;;;6.57;3.08;;;12.40;97.30;;;;;;5056880;28;20107;-89
2023/05/01 01:52:44;;;;;;;6.55;3.55;;;12.40;97.30;;;;;;5089576;28;20054;-89
2023/05/01 01:55:13;;;;;;;6.55;3.42;;;12.40;97.30;;;;;;5060863;28;20026;-88
2023/05/01 01:57:43;;;;;;;7.25;3.58;;;12.30;97.40;;;;;;5064555;28;20025;-89
2023/05/01 02:00:11;;;;;;;5.63;3.55;;;12.30;97.40;;;;;;5053189;28;20025;-89
2023/05/01 02:02:38;;;;;;;8.15;3.17;;;12.30;97.40;;;;;;5053354;28;20103;-89
2023/05/01 02:05:13;;;;;;;6.15;3.30;;;12.30;97.50;;;;;;5054190;28;20100;-89
2023/05/01 02:07:40;;;;;;;5.07;3.38;;;12.30;97.60;;;;;;5053339;28;20433;-89
2023/05/01 02:10:10;;;;;;;5.57;3.42;;;12.30;97.70;;;;;;5053126;28;20044;-89
2023/05/01 02:12:36;;;;;;;5.00;3.13;;;12.30;97.80;;;;;;5071296;28;20078;-89
2023/05/01 02:15:03;;;;;;;6.00;2.92;;;12.30;97.80;;;;;;5073350;28;20025;-88
2023/05/01 02:17:30;;;;;;;8.77;3.67;;;12.30;97.80;;;;;;5074557;28;20048;-89
2023/05/01 02:19:57;;;;;;;6.93;3.42;;;12.30;97.80;;;;;;5073108;28;20476;-89
2023/05/01 02:22:25;;;;;;;9.73;3.80;;;12.30;97.80;;;;;;5074886;28;20032;-89
2023/05/01 02:24:53;;;;;;;6.50;3.35;;;12.30;97.70;;;;;;5073413;28;20052;-86
2023/05/01 02:27:36;;;;;;;6.15;3.20;;;12.30;97.70;;;;;;5073712;28;20036;-90
2023/05/01 02:30:04;;;;;;;6.47;3.40;;;12.30;97.70;;;;;;5073820;28;20032;-89
2023/05/01 02:32:30;;;;;;;5.97;3.40;;;12.40;97.60;;;;;;5074067;28;20047;-89
2023/05/01 02:34:56;;;;;;;6.00;3.63;;;12.30;97.50;;;;;;5077730;28;20487;-89
2023/05/01 02:37:22;;;;;;;7.35;3.42;;;12.30;97.50;;;;;;5097595;28;20008;-88
2023/05/01 02:39:50;;;;;;;7.38;3.45;;;12.30;97.50;;;;;;5087880;28;20013;-87
2023/05/01 02:42:18;;;;;;;6.78;3.50;;;12.30;97.50;;;;;;5082790;28;20021;-88
2023/05/01 02:44:52;;;;;;;5.95;3.60;;;12.30;97.60;;;;;;5092307;28;20025;-85
2023/05/01 02:47:21;;;;;;;9.40;3.85;;;12.30;97.60;;;;;;5092424;28;20043;-88
2023/05/01 02:49:48;;;;;;;6.97;4.30;;;12.40;97.70;;;;;;5075598;28;20468;-89
2023/05/01 02:52:17;;;;;;;8.13;3.83;;;12.30;97.60;;;;;;5069944;28;20029;-89
2023/05/01 02:54:44;;;;;;;6.75;3.70;;;12.30;97.70;;;;;;5073167;28;20037;-88
2023/05/01 02:57:10;;;;;;;5.45;3.10;;;12.30;97.70;;;;;;5056490;28;20036;-88
2023/05/01 02:59:36;;;;;;;5.93;3.00;;;12.30;97.70;;;;;;5072805;28;20472;-88
2023/05/01 03:02:02;;;;;;;8.95;4.15;;;12.30;97.80;;;;;;5043058;28;20035;-89
2023/05/01 03:04:28;;;;;;;4.38;3.10;;;12.30;97.80;;;;;;5056234;28;20490;-90
2023/05/01 03:06:53;;;;;;;6.30;3.20;;;12.30;97.80;;;;;;5067961;28;20032;-89
2023/05/01 03:09:20;;;;;;;5.00;3.70;;;12.30;97.80;;;;;;5072917;28;20056;-88
2023/05/01 03:11:46;;;;;;;3.88;3.03;;;12.30;97.70;;;;;;5066990;28;20025;-89
2023/05/01 03:14:12;;;;;;;6.55;3.50;;;12.40;97.70;;;;;;5052189;28;20106;-88
2023/05/01 03:16:38;;;;;;;5.35;3.47;;;12.30;97.60;;;;;;5052565;28;20448;-89
2023/05/01 03:19:04;;;;;;;8.25;3.70;;;12.30;97.50;;;;;;5052477;28;20154;-88
2023/05/01 03:21:31;;;;;;;8.40;3.70;;;12.30;97.60;;;;;;5054078;28;20075;-89
2023/05/01 03:23:57;;;;;;;7.50;3.85;;;12.30;97.50;;;;;;5063317;28;20029;-84
2023/05/01 03:26:23;;;;;;;6.95;3.78;;;12.20;97.50;;;;;;5072749;28;20465;-89
2023/05/01 03:28:48;;;;;;;4.38;3.30;;;12.20;97.60;;;;;;5072843;28;20020;-88
2023/05/01 03:31:14;;;;;;;8.93;3.70;;;12.20;97.60;;;;;;5057555;28;20025;-89
2023/05/01 03:33:40;;;;;;;6.43;3.63;;;12.20;97.60;;;;;;5093034;28;20476;-91
2023/05/01 03:36:08;;;;;;;5.93;3.55;;;12.20;97.60;;;;;;5076809;28;20016;-89
2023/05/01 03:38:34;;;;;;;4.63;3.47;;;12.20;97.60;;;;;;5076891;28;20085;-90
2023/05/01 03:41:00;;;;;;;6.22;3.97;;;12.30;97.70;;;;;;5059208;28;20120;-87
2023/05/01 03:43:25;;;;;;;6.80;4.10;;;12.20;97.70;;;;;;5060020;28;20024;-88
2023/05/01 03:45:51;;;;;;;6.68;3.88;;;12.20;97.70;;;;;;5075790;28;20024;-88
2023/05/01 03:48:20;;;;;;;7.22;3.70;;;12.20;97.70;;;;;;5075726;28;20100;-88
2023/05/01 03:50:45;;;;;;;9.02;4.07;;;12.20;97.80;;;;;;5043092;28;20062;-88
2023/05/01 03:53:12;;;;;;;6.95;3.72;;;12.20;97.90;;;;;;5071659;28;20115;-88
2023/05/01 03:55:39;;;;;;;5.28;3.70;;;12.20;97.80;;;;;;5059288;28;20357;-89
2023/05/01 03:58:05;;;;;;;8.10;4.22;;;12.20;97.80;;;;;;5076082;28;20033;-89
2023/05/01 04:00:32;;;;;;;7.68;3.63;;;12.20;97.80;;;;;;5077044;28;20029;-88
2023/05/01 04:02:57;;;;;;;6.15;3.63;;;12.20;97.80;;;;;;5076634;28;20032;-89
2023/05/01 04:05:23;;;;;;;7.50;3.97;;;12.20;97.80;;;;;;5059033;28;20119;-90
2023/05/01 04:07:49;;;;;;;6.13;4.15;;;12.20;97.70;;;;;;5072457;28;20086;-88
2023/05/01 04:10:16;;;;;;;5.63;3.80;;;12.20;97.70;;;;;;5093536;28;20048;-88
2023/05/01 04:12:42;;;;;;;6.32;3.47;;;12.10;97.70;;;;;;5078603;28;20041;-89
2023/05/01 04:15:08;;;;;;;7.78;4.45;;;12.20;97.70;;;;;;5079352;28;20017;-84
2023/05/01 04:17:37;;;;;;;7.53;3.97;;;12.20;97.80;;;;;;5106195;28;20062;-87
2023/05/01 04:20:05;;;;;;;5.53;3.95;;;12.20;97.80;;;;;;5100042;28;20028;-83
2023/05/01 04:22:31;;;;;;;4.90;3.28;;;12.20;97.80;;;;;;5084283;28;20025;-89
2023/05/01 04:24:56;;;;;;;5.18;3.42;;;12.20;97.80;;;;;;5077816;28;20032;-88
2023/05/01 04:27:22;;;;;;;6.40;4.00;;;12.20;98.10;;;;;;5075062;28;20448;-88
2023/05/01 04:29:48;;;;;;;6.30;3.65;;;12.20;97.90;;;;;;5074980;28;20029;-89
2023/05/01 04:32:14;;;;;;;7.53;3.92;;;12.20;97.90;;;;;;5075873;28;20078;-88
2023/05/01 04:34:39;;;;;;;6.63;3.78;;;12.20;98.00;;;;;;5074831;28;20059;-89
2023/05/01 04:37:07;;;;;;;6.53;3.90;;;12.10;98.10;;;;;;5056664;28;20469;-88
2023/05/01 04:39:35;;;;;;;7.93;3.33;;;12.20;98.10;;;;;;5075085;28;20021;-89
2023/05/01 04:42:01;;;;;;;6.50;3.90;;;12.20;98.20;;;;;;5056338;28;20024;-88
2023/05/01 04:44:27;;;;;;;5.57;3.47;;;12.20;98.20;;;;;;5046853;28;20040;-88
2023/05/01 04:46:53;;;;;;;7.15;3.60;;;12.10;98.20;;;;;;5054351;28;20032;-89
2023/05/01 04:49:20;;;;;;;9.27;4.10;;;12.20;98.30;;;;;;5036750;28;20021;-88
2023/05/01 04:51:46;;;;;;;5.75;3.75;;;12.20;98.20;;;;;;5071455;28;20029;-87
2023/05/01 04:54:11;;;;;;;7.38;4.10;;;12.20;98.10;;;;;;5071418;28;20052;-92
2023/05/01 04:56:37;;;;;;;9.77;4.55;;;12.10;98.10;;;;;;5038626;28;20039;-91
2023/05/01 04:59:05;;;;;;;6.50;4.28;;;12.10;98.10;;;;;;5039089;28;20025;-92
2023/05/01 05:01:31;;;;;;;6.93;4.00;;;12.10;98.20;;;;;;5039294;28;20029;-90
2023/05/01 05:03:57;;;;;;;6.97;4.07;;;12.10;98.30;;;;;;5022661;28;20484;-92
2023/05/01 05:06:22;;;;;;;8.00;4.20;;;12.10;98.30;;;;;;5039193;28;20032;-92
2023/05/01 05:08:51;;;;;;;9.52;4.38;;;12.10;98.40;;;;;;5056063;28;20033;-94
2023/05/01 05:11:22;;;;;;;5.97;4.53;;;12.20;98.50;;;;;;5055699;28;20039;-92
2023/05/01 05:13:48;;;;;;;7.40;4.40;;;12.20;98.50;;;;;;5072620;28;20029;-92
2023/05/01 05:16:14;;;;;;;6.22;4.32;;;12.20;98.40;;;;;;5038874;28;20506;-94
2023/05/01 05:18:40;;;;;;;7.35;4.43;;;12.20;98.40;;;;;;5072641;28;20017;-93
2023/05/01 05:21:06;;;;;;;6.88;4.13;;;12.20;98.30;;;;;;5055995;28;20032;-92
2023/05/01 05:23:32;;;;;;;8.00;4.50;;;12.20;98.30;;;;;;5054698;28;20036;-92
2023/05/01 05:26:02;;;;;;;5.97;4.50;;;12.20;98.40;;;;;;5055566;28;20033;-93
2023/05/01 05:28:29;;;;;;;7.78;3.88;;;12.30;98.40;;;;;;5054568;28;20469;-93
2023/05/01 05:30:55;;;;;;;8.02;4.35;;;12.30;98.50;;;;;;5055569;28;20025;-92
2023/05/01 05:33:23;;;;;;;10.65;5.15;;;12.30;98.40;;;;;;5055446;28;20029;-92
2023/05/01 05:35:50;;;;;;;9.90;4.50;;;12.30;98.40;;;;;;5054675;28;20108;-94
2023/05/01 05:38:16;;;;;;;8.65;4.65;;;12.40;98.30;;;;;;5054009;28;20031;-92
2023/05/01 05:40:41;;;;;;;7.65;4.65;;;12.40;98.30;;;;;;5054739;28;20103;-92
2023/05/01 05:43:14;;;;;;;8.65;4.75;;;12.40;98.30;;;;;;5055565;28;20380;-90
2023/05/01 05:45:40;;;;;;;9.65;4.35;;;12.50;98.40;;;;;;5072100;28;20048;-90
2023/05/01 05:48:06;;;;;;;8.77;4.53;;;12.50;98.40;;;;;;5070009;28;20025;-89
2023/05/01 05:50:32;;;;;;;7.78;4.60;;;12.50;98.40;;;;;;5094237;28;20018;-91
2023/05/01 05:53:00;;;;;;;8.32;4.35;;;12.50;98.30;;;;;;5075661;28;20041;-92
2023/05/01 05:55:26;;;;;;;7.00;4.40;;;12.50;98.30;;;;;;5076851;28;20039;-89
2023/05/01 05:57:52;;;;;;;11.98;4.88;;;12.50;98.40;;;;;;5069578;28;20163;-91
2023/05/01 06:00:18;;;;;;;6.97;4.55;;;12.50;98.40;;;;;;5037959;28;20071;-86
2023/05/01 06:02:44;;;;;;;6.95;4.78;;;12.50;98.30;;;;;;5038543;28;20135;-94
2023/05/01 06:05:10;;;;;;;7.40;4.43;;;12.50;98.30;;;;;;5038089;28;20057;-94
2023/05/01 06:07:36;;;;;;;8.70;4.47;;;12.50;98.30;;;;;;5054095;28;20087;-92
2023/05/01 06:10:04;;;;;;;6.82;4.70;;;12.50;98.30;;;;;;5054583;28;20025;-92
2023/05/01 06:12:34;;;;;;;9.18;5.05;;;12.50;98.30;;;;;;5054854;28;20043;-91
2023/05/01 06:15:00;;;;;;;9.53;4.83;;;12.50;98.30;;;;;;5037702;28;20025;-92
2023/05/01 06:17:25;;;;;;;7.93;4.60;;;12.50;98.20;;;;;;5069704;28;20056;-92
2023/05/01 06:19:52;;;;;;;8.05;5.05;;;12.60;98.20;;;;;;5037139;28;20443;-90
2023/05/01 06:22:21;;;;;;;8.93;4.80;;;12.60;98.20;;;;;;5054348;28;20025;-90
2023/05/01 06:24:49;;;;;;;8.38;5.22;;;12.60;98.20;;;;;;5037178;28;20036;-91
2023/05/01 06:27:14;;;;;;;7.40;4.43;;;12.60;98.40;;;;;;5036932;28;20029;-90
2023/05/01 06:29:42;;;;;;;7.18;4.68;;;12.60;98.40;;;;;;5054639;28;20032;-89
2023/05/01 06:32:08;;;;;;;7.10;4.72;;;12.60;98.40;;;;;;5053816;28;20040;-91
2023/05/01 06:34:34;;;;;;;9.32;5.30;;;12.60;98.30;;;;;;5054319;28;20029;-93
2023/05/01 06:37:00;;;;;;;9.40;4.97;;;12.60;98.30;;;;;;5036648;28;20037;-92
2023/05/01 06:39:25;;;;;;;10.23;5.30;;;12.60;98.30;;;;;;5053318;28;20078;-93
2023/05/01 06:41:51;;;;;;;9.52;5.13;;;12.60;98.20;;;;;;5036685;28;20018;-92
2023/05/01 06:44:17;;;;;;;6.95;4.60;;;12.60;98.30;;;;;;5070071;28;20025;-92
2023/05/01 06:46:42;;;;;;;9.55;4.90;;;12.60;98.50;;;;;;5036398;28;20124;-93
2023/05/01 06:49:10;;;;;;;8.25;5.25;;;12.60;98.50;;;;;;5053254;28;20465;-92
2023/05/01 06:51:36;;;;;;;7.60;4.82;;;12.60;98.60;;;;;;5053129;28;20440;-93
2023/05/01 06:54:02;;;;;;;9.30;4.40;;;12.70;98.60;;;;;;5036728;28;20072;-92
2023/05/01 06:56:28;;;;;;;9.70;4.70;;;12.70;98.50;;;;;;5053090;28;20091;-90
2023/05/01 06:58:53;;;;;;;7.95;4.70;;;12.80;98.50;;;;;;5036656;28;20029;-92
2023/05/01 07:01:19;;;;;;;9.27;5.40;;;12.80;98.40;;;;;;5069902;28;20480;-91
2023/05/01 07:03:48;;;;;;;10.77;5.43;;;12.80;98.40;;;;;;5052829;28;20511;-91
2023/05/01 07:06:14;;;;;;;7.57;4.95;;;12.80;98.30;;;;;;5056629;28;20036;-92
2023/05/01 07:08:39;;;;;;;5.95;4.43;;;12.80;98.30;;;;;;5057239;28;20400;-91
2023/05/01 07:11:06;;;;;;;10.18;5.82;;;12.80;98.40;;;;;;5056992;28;20111;-91
2023/05/01 07:13:32;;;;;;;8.02;5.30;;;12.90;98.40;;;;;;5056999;28;20087;-91
2023/05/01 07:15:57;;;;;;;8.75;5.20;;;12.90;98.40;;;;;;5040687;28;20557;-91
2023/05/01 07:18:23;;;;;;;7.20;5.38;;;12.90;98.30;;;;;;5040465;28;20076;-91
2023/05/01 07:20:49;;;;;;;7.00;4.97;;;13.00;98.30;;;;;;5040884;28;20388;-91
2023/05/01 07:23:15;;;;;;;9.45;6.03;;;13.00;98.20;;;;;;5074985;28;20032;-91
2023/05/01 07:25:41;;;;;;;9.13;5.20;;;13.00;98.20;;;;;;5061527;28;20081;-91
2023/05/01 07:28:07;;;;;;;10.18;5.07;;;13.10;98.20;;;;;;5064246;28;20013;-92
2023/05/01 07:30:34;;;;;;;10.57;5.15;;;13.10;98.20;;;;;;5063639;28;20031;-88
2023/05/01 07:33:00;;;;;;;9.65;5.00;;;13.10;98.20;;;;;;5067580;28;20039;-93
2023/05/01 07:35:26;;;;;;;9.57;5.70;;;13.20;98.20;;;;;;5041587;28;20033;-92
2023/05/01 07:37:52;;;;;;;6.18;4.15;;;13.20;97.70;;;;;;5040305;28;20113;-93
2023/05/01 07:40:18;;;;;;;9.02;6.05;;;13.20;97.70;;;;;;5023777;28;20125;-93
2023/05/01 07:42:47;;;;;;;6.53;5.10;;;13.20;97.70;;;;;;5040097;28;20025;-92
2023/05/01 07:45:12;;;;;;;7.63;4.90;;;13.20;97.70;;;;;;5056539;28;20469;-91
2023/05/01 07:47:38;;;;;;;7.35;5.65;;;13.30;97.80;;;;;;5073059;28;20028;-93
2023/05/01 07:50:10;;;;;;;9.48;5.30;;;13.30;97.90;;;;;;5057425;28;20031;-94
2023/05/01 07:52:36;;;;;;;8.60;5.20;;;13.40;97.90;;;;;;5056029;28;20074;-92
2023/05/01 07:55:05;;;;;;;10.05;6.18;;;13.50;97.90;;;;;;5056531;28;20025;-93
2023/05/01 07:57:34;;;;;;;7.70;5.10;;;13.60;97.60;;;;;;5057037;28;20461;-91
2023/05/01 08:00:00;;;;;;;9.38;5.18;;;13.60;97.40;;;;;;5057321;28;20036;-92
2023/05/01 08:02:26;;;;;;;6.47;4.95;;;13.60;97.60;;;;;;5056565;28;20032;-93
2023/05/01 08:04:51;;;;;;;8.27;5.60;;;13.70;97.80;;;;;;5057192;28;20036;-93
2023/05/01 08:07:17;;;;;;;6.63;5.40;;;13.80;97.70;;;;;;5057180;28;20017;-92
2023/05/01 08:09:43;;;;;;;8.18;5.00;;;13.80;97.80;;;;;;5056118;28;20025;-93
2023/05/01 08:12:08;;;;;;;8.65;5.10;;;13.90;98.00;;;;;;5056253;28;20051;-91
2023/05/01 08:14:34;;;;;;;10.18;5.57;;;14.00;98.00;;;;;;5055918;28;20502;-91
2023/05/01 08:17:00;;;;;;;9.85;5.60;;;14.10;97.90;;;;;;5038705;28;20087;-92
2023/05/01 08:19:26;;;;;;;8.25;5.20;;;14.10;97.70;;;;;;5055771;28;20384;-93
2023/05/01 08:21:52;;;;;;;8.80;5.50;;;14.20;97.70;;;;;;5055685;28;20017;-92
2023/05/01 08:24:18;;;;;;;9.35;6.10;;;14.30;97.70;;;;;;5039075;28;20033;-92
2023/05/01 08:26:44;;;;;;;8.80;5.53;;;14.30;97.50;;;;;;5055621;28;20469;-92
2023/05/01 08:29:18;;;;;;;9.30;5.07;;;14.30;97.60;;;;;;5057086;28;20147;-92
2023/05/01 08:31:49;;;;;;;7.07;5.13;;;14.40;97.60;;;;;;5055524;28;20082;-91
2023/05/01 08:34:16;;;;;;;6.68;4.93;;;14.50;97.80;;;;;;5039770;28;20043;-92
2023/05/01 08:36:41;;;;;;;7.55;5.50;;;14.50;97.70;;;;;;5072021;28;20500;-93
2023/05/01 08:39:07;;;;;;;10.10;5.20;;;14.50;97.60;;;;;;5055755;28;20025;-92
2023/05/01 08:41:35;;;;;;;7.32;5.60;;;14.60;97.70;;;;;;5055557;28;20464;-92
2023/05/01 08:44:02;;;;;;;8.73;4.90;;;14.70;97.70;;;;;;5073655;28;20445;-92
2023/05/01 08:46:45;;;;;;;9.43;5.13;;;14.70;97.60;;;;;;5058031;28;20025;-91
2023/05/01 08:49:15;;;;;;;8.68;5.05;;;14.70;97.60;;;;;;5057108;28;20104;-91
2023/05/01 08:51:51;;;;;;;9.45;5.38;;;14.80;97.60;;;;;;5056424;28;20025;-93
2023/05/01 08:54:18;;;;;;;8.00;5.00;;;14.90;97.60;;;;;;5056757;28;20053;-93
2023/05/01 08:56:46;;;;;;;8.93;4.90;;;15.00;97.80;;;;;;5055750;28;20096;-92
2023/05/01 08:59:13;;;;;;;6.90;4.90;;;15.00;97.90;;;;;;5056160;28;20098;-94
2023/05/01 09:01:40;;;;;;;10.10;5.15;;;15.10;97.80;;;;;;5057879;28;20110;-92
2023/05/01 09:04:10;;;;;;;8.90;4.95;;;15.30;97.60;;;;;;5064271;28;20029;-92
2023/05/01 09:06:36;;;;;;;7.70;4.63;;;15.30;97.60;;;;;;5077694;28;20012;-86
2023/05/01 09:09:02;;;;;;;9.25;5.40;;;15.40;97.70;;;;;;5078539;28;20061;-92
2023/05/01 09:11:28;;;;;;;6.25;4.30;;;15.50;97.20;;;;;;5060333;28;20089;-92
2023/05/01 09:13:55;;;;;;;4.78;3.92;;;15.60;97.20;;;;;;5053813;28;20114;-92
2023/05/01 09:16:21;;;;;;;7.10;4.20;;;15.70;97.30;;;;;;5057375;28;20052;-92
2023/05/01 09:18:48;;;;;;;6.25;4.88;;;15.70;96.70;;;;;;5054952;28;20099;-91
2023/05/01 09:21:13;;;;;;;8.02;4.50;;;15.80;96.30;;;;;;5056071;28;20029;-92
2023/05/01 09:23:39;;;;;;;8.00;4.35;;;15.90;95.90;;;;;;5054569;28;20177;-90
2023/05/01 09:26:07;;;;;;;6.45;4.13;;;15.90;95.80;;;;;;5055222;28;20082;-91
2023/05/01 09:28:43;;;;;;;5.72;3.50;;;15.90;95.80;;;;;;5055006;28;20036;-91
2023/05/01 09:31:22;;;;;;;6.80;3.95;;;16.00;95.90;;;;;;5071149;28;20104;-92
2023/05/01 09:33:56;;;;;;;5.47;3.53;;;16.10;95.90;;;;;;5055383;28;20029;-92
2023/05/01 09:36:23;;;;;;;4.95;3.13;;;16.20;96.00;;;;;;5055376;28;20033;-91
2023/05/01 09:38:49;;;;;;;6.63;3.50;;;16.30;96.00;;;;;;5055297;28;20051;-93
2023/05/01 09:41:14;;;;;;;7.80;4.10;;;16.40;96.10;;;;;;5054410;28;20060;-91
2023/05/01 09:43:42;;;;;;;6.28;3.70;;;16.50;96.10;;;;;;5021321;28;20021;-94
2023/05/01 09:46:10;;;;;;;4.80;4.10;;;16.50;96.00;;;;;;5071032;28;20025;-92
2023/05/01 09:48:36;;;;;;;6.72;3.80;;;16.60;95.90;;;;;;5054241;28;20021;-93
2023/05/01 09:51:25;;;;;;;4.60;3.22;;;16.70;96.00;;;;;;5054126;28;20415;-92
2023/05/01 09:53:57;;;;;;;4.30;3.30;;;16.80;96.30;;;;;;5054864;28;20025;-92
2023/05/01 09:56:26;;;;;;;4.78;3.03;;;16.80;96.10;;;;;;5053518;28;20070;-91
2023/05/01 09:58:53;;;;;;;4.95;3.75;;;16.90;96.10;;;;;;5071592;28;20112;-92
2023/05/01 10:01:39;;;;;;;5.93;3.60;;;17.00;95.60;;;;;;5055166;28;20021;-95
2023/05/01 10:04:05;;;;;;;4.15;3.08;;;17.10;95.30;;;;;;5054133;28;20120;-92
2023/05/01 10:06:31;;;;;;;6.90;4.15;;;17.20;95.50;;;;;;5057414;28;20021;-95
2023/05/01 10:08:59;;;;;;;4.93;3.25;;;17.30;95.00;;;;;;5391398;22;20060;-95
2023/05/01 10:11:28;;;;;;;5.75;3.83;;;17.40;94.70;;;;;;5042787;28;20068;-96
2023/05/01 10:14:22;;;;;;;4.72;3.67;;;17.40;94.10;;;;;;5057735;28;20021;-95
2023/05/01 10:16:52;;;;;;;4.20;2.97;;;17.50;93.50;;;;;;5039337;28;20123;-94
2023/05/01 10:19:23;;;;;;;3.53;2.92;;;17.50;93.90;;;;;;5037372;28;20040;-95
2023/05/01 10:21:49;;;;;;;4.45;3.50;;;17.60;94.30;;;;;;5045972;28;20029;-95
2023/05/01 10:24:15;;;;;;;4.72;3.35;;;17.70;94.50;;;;;;5060811;28;20084;-94
2023/05/01 10:26:52;;;;;;;3.88;2.70;;;17.80;94.70;;;;;;5068806;28;20032;-94
2023/05/01 10:29:24;;;;;;;5.30;3.05;;;17.90;94.80;;;;;;5054434;28;20044;-95
2023/05/01 10:31:55;;;;;;;4.28;3.03;;;18.00;94.90;;;;;;5053585;28;20021;-95
2023/05/01 10:34:31;;;;;;;5.25;3.15;;;18.10;94.90;;;;;;5055007;28;20037;-95
2023/05/01 10:37:18;;;;;;;6.20;3.65;;;18.10;94.80;;;;;;5060127;28;20075;-96
2023/05/01 10:39:52;;;;;;;3.63;2.88;;;18.20;94.50;;;;;;5066189;28;20023;-92
2023/05/01 10:42:31;;;;;;;4.68;2.88;;;18.30;94.70;;;;;;5072582;28;20020;-94
2023/05/01 10:45:29;;;;;;;3.17;2.20;;;18.40;94.50;;;;;;5066789;28;20053;-95
2023/05/01 10:48:07;;;;;;;3.65;2.70;;;18.50;94.50;;;;;;5065722;28;20017;-94
2023/05/01 10:51:09;;;;;;;5.70;2.90;;;18.70;94.40;;;;;;5070603;28;20041;-93
2023/05/01 10:53:38;;;;;;;4.18;2.80;;;18.70;94.50;;;;;;5081000;28;20061;-94
2023/05/01 10:56:26;;;;;;;3.35;2.65;;;18.80;94.70;;;;;;5080680;28;20077;-93
2023/05/01 10:59:15;;;;;;;3.78;2.75;;;18.90;94.60;;;;;;5067839;28;20015;-90
2023/05/01 11:02:09;;;;;;;5.00;2.97;;;19.00;94.50;;;;;;5079493;28;20025;-94
2023/05/01 11:04:50;;;;;;;3.75;2.72;;;19.10;94.50;;;;;;5072196;28;20017;-94
2023/05/01 11:07:20;;;;;;;3.72;2.67;;;19.10;94.50;;;;;;5068494;28;20025;-94
2023/05/01 11:09:48;;;;;;;;;;;19.20;94.40;;;;;;5069205;28;20124;-95
2023/05/01 11:12:34;;;;;;;4.97;2.55;;;19.30;94.40;;;;;;5096312;28;19995;-95
2023/05/01 11:15:07;;;;;;;4.50;2.75;;;19.30;94.10;;;;;;5061016;28;20029;-95
2023/05/01 11:17:41;;;;;;;4.82;3.55;;;19.40;94.10;;;;;;5061536;28;20155;-95
2023/05/01 11:20:08;;;;;;;6.68;3.20;;;19.40;93.70;;;;;;5303931;22;20064;-95
2023/05/01 11:22:35;;;;;;;4.20;2.78;;;19.50;93.80;;;;;;5061132;28;20183;-95
2023/05/01 11:25:17;;;;;;;3.35;2.63;;;19.60;93.70;;;;;;5061803;28;20127;-95
2023/05/01 11:27:57;;;;;;;5.43;2.70;;;19.60;93.20;;;;;;5061745;28;20427;-94
2023/05/01 11:30:24;;;;;;;4.07;2.80;;;19.70;93.00;;;;;;5063709;28;20074;-92
2023/05/01 11:32:50;;;;;;;5.78;3.15;;;19.70;92.80;;;;;;5061147;28;20120;-87
2023/05/01 11:35:21;;;;;;;4.60;2.97;;;19.70;92.70;;;;;;5061072;28;20469;-93
2023/05/01 11:40:26;;;;;;;4.93;3.20;;;19.80;93.00;;;;;;5070411;28;19943;-95
2023/05/01 11:43:03;;;;;;;4.43;3.50;;;19.90;93.10;;;;;;5078215;28;20028;-92
2023/05/01 11:45:29;;;;;;;5.68;3.67;;;19.90;92.90;;;;;;5060547;28;20032;-95
2023/05/01 11:50:34;;;;;;;5.97;3.08;;;20.10;93.10;;;;;;5041742;28;20057;-90
2023/05/01 11:53:00;;;;;;;8.00;3.05;;;20.20;93.30;;;;;;5232733;22;20160;-95
2023/05/01 11:55:33;;;;;;;6.18;3.50;;;20.20;93.10;;;;;;5061333;28;20496;-93
2023/05/01 11:57:59;;;;;;;5.20;3.30;;;20.20;92.00;;;;;;5041524;28;20503;-93
2023/05/01 12:00:49;;;;;;;4.05;3.22;;;20.20;91.80;;;;;;5058555;28;20115;-94
2023/05/01 12:03:15;;;;;;;5.68;3.75;;;20.30;92.00;;;;;;5059267;28;20025;-94
2023/05/01 12:05:43;;;;;;;7.68;3.97;;;20.30;91.90;;;;;;5058463;28;20104;-93
2023/05/01 12:08:29;;;;;;;5.47;3.58;;;20.30;91.90;;;;;;5057438;28;20464;-94
2023/05/01 12:10:59;;;;;;;6.22;3.83;;;20.30;92.10;;;;;;5057875;28;20032;-93
2023/05/01 12:13:25;;;;;;;6.63;3.80;;;20.40;92.10;;;;;;5058581;28;20055;-94
2023/05/01 12:16:17;;;;;;;5.38;3.72;;;20.40;91.80;;;;;;5064008;28;20028;-95
2023/05/01 12:18:52;;;;;;;6.53;3.60;;;20.40;91.80;;;;;;5067220;28;20051;-95
2023/05/01 12:21:18;;;;;;;4.95;3.20;;;20.40;91.60;;;;;;5072540;28;20032;-94
2023/05/01 12:37:23;;;;;;;6.10;2.00;;;20.50;88.30;;;;;;5966941;23;21221;31
2023/05/01 13:50:58;;;;;;;4.00;1.60;;;20.30;79.10;;;;;;5993404;23;21386;31
2023/05/01 14:03:25;;;;;;;;;;;;;;;;;;;;;
2023/05/01 14:09:38;;;;;;;3.97;2.85;;;19.90;79.90;;;;;;6021896;23;22065;31
2023/05/01 14:24:03;;;;;;;;;;;;;;;;;;;;;
2023/05/01 14:33:19;;;;;;;5.22;3.38;;;19.10;83.70;;;;;;4586483;23;20122;-95
2023/05/01 15:04:13;;;;;;;4.38;2.63;;;18.70;84.70;;;;;;5871716;23;21001;-95
2023/05/01 15:12:13;;;;;;;7.30;3.17;;;18.70;86.20;;;;;;5843614;23;20834;-94
2023/05/01 15:14:39;;;;;;;5.90;2.90;;;18.70;86.60;;;;;;5368794;23;20051;-94
2023/05/01 15:19:53;;;;;;;5.82;3.75;;;18.70;87.60;;;;;;5076799;23;20052;-94
2023/05/01 15:22:19;;;;;;;6.72;3.30;;;18.70;87.70;;;;;;5373450;23;20118;-92
2023/05/01 15:24:44;;;;;;;6.65;3.58;;;18.60;88.70;;;;;;4907253;29;20032;-95
2023/05/01 15:29:46;;;;;;;4.57;3.65;;;18.60;88.80;;;;;;5654907;23;20056;-95
2023/05/01 15:32:11;;;;;;;4.22;3.65;;;18.60;89.20;;;;;;5275093;23;20064;-93
2023/05/01 15:34:39;;;;;;;4.13;3.25;;;18.60;89.40;;;;;;4924418;29;20123;-92
2023/05/01 15:37:05;;;;;;;5.10;3.80;;;18.50;89.70;;;;;;4908437;29;20016;-91
2023/05/01 15:39:54;;;;;;;7.13;3.92;;;18.50;89.70;;;;;;4926632;29;20044;-94